sensor_id;sensor_type;location;lat;lon;timestamp;pressure;altitude;pressure_sealevel;temperature;humidity
12358;BME280;6243;51.244;6.774;2023-02-24T00:01:47;150215.81;;;10.93;100.00
12358;BME280;6243;51.244;6.774;2023-02-24T00:04:13;150236.13;;;11.01;100.00
12358;BME280;6243;51.244;6.774;2023-02-24T00:06:39;150231.03;;;10.99;100.00
12358;BME280;6243;51.244;6.774;2023-02-24T00:09:07;150229.75;;;10.98;100.00
12358;BME280;6243;51.244;6.774;2023-02-24T00:11:36;150215.81;;;10.93;100.00
12358;BME280;6243;51.244;6.774;2023-02-24T00:14:03;150232.31;;;10.99;100.00
12358;BME280;6243;51.244;6.774;2023-02-24T00:16:29;150231.03;;;10.99;100.00
12358;BME280;6243;51.244;6.774;2023-02-24T00:18:54;150218.31;;;10.94;100.00
12358;BME280;6243;51.244;6.774;2023-02-24T00:21:20;150229.75;;;10.98;100.00
12358;BME280;6243;51.244;6.774;2023-02-24T00:23:46;150233.56;;;11.00;100.00
12358;BME280;6243;51.244;6.774;2023-02-24T00:26:13;150218.31;;;10.94;100.00
12358;BME280;6243;51.244;6.774;2023-02-24T00:28:40;150189.06;;;10.82;100.00
12358;BME280;6243;51.244;6.774;2023-02-24T00:31:08;150168.75;;;10.74;100.00
12358;BME280;6243;51.244;6.774;2023-02-24T00:33:33;150133.16;;;10.60;100.00
12358;BME280;6243;51.244;6.774;2023-02-24T00:36:06;150180.19;;;10.79;100.00
12358;BME280;6243;51.244;6.774;2023-02-24T00:38:33;150191.63;;;10.83;100.00
12358;BME280;6243;51.244;6.774;2023-02-24T00:40:58;150178.91;;;10.78;100.00
12358;BME280;6243;51.244;6.774;2023-02-24T00:43:24;150172.56;;;10.76;100.00
12358;BME280;6243;51.244;6.774;2023-02-24T00:45:51;150149.69;;;10.66;100.00
12358;BME280;6243;51.244;6.774;2023-02-24T00:48:16;150152.25;;;10.67;100.00
12358;BME280;6243;51.244;6.774;2023-02-24T00:50:42;150135.69;;;10.61;100.00
12358;BME280;6243;51.244;6.774;2023-02-24T00:53:07;150128.09;;;10.58;100.00
12358;BME280;6243;51.244;6.774;2023-02-24T00:55:32;150101.34;;;10.47;100.00
12358;BME280;6243;51.244;6.774;2023-02-24T00:57:58;150041.66;;;10.24;100.00
12358;BME280;6243;51.244;6.774;2023-02-24T01:00:24;150089.91;;;10.43;100.00
12358;BME280;6243;51.244;6.774;2023-02-24T01:02:50;150091.19;;;10.43;100.00
12358;BME280;6243;51.244;6.774;2023-02-24T01:05:16;150098.84;;;10.46;100.00
12358;BME280;6243;51.244;6.774;2023-02-24T01:07:42;150116.66;;;10.53;100.00
12358;BME280;6243;51.244;6.774;2023-02-24T01:10:09;150129.38;;;10.58;100.00
12358;BME280;6243;51.244;6.774;2023-02-24T01:12:35;150123.00;;;10.56;100.00
12358;BME280;6243;51.244;6.774;2023-02-24T01:15:00;150136.97;;;10.61;100.00
12358;BME280;6243;51.244;6.774;2023-02-24T01:17:26;150100.13;;;10.47;100.00
12358;BME280;6243;51.244;6.774;2023-02-24T01:19:53;150121.72;;;10.55;100.00
12358;BME280;6243;51.244;6.774;2023-02-24T01:22:19;150109.00;;;10.50;100.00
12358;BME280;6243;51.244;6.774;2023-02-24T01:24:45;150126.81;;;10.57;100.00
12358;BME280;6243;51.244;6.774;2023-02-24T01:27:12;150120.44;;;10.55;100.00
12358;BME280;6243;51.244;6.774;2023-02-24T01:29:38;150086.13;;;10.41;100.00
12358;BME280;6243;51.244;6.774;2023-02-24T01:32:03;150075.97;;;10.37;100.00
12358;BME280;6243;51.244;6.774;2023-02-24T01:34:29;150088.69;;;10.42;100.00
12358;BME280;6243;51.244;6.774;2023-02-24T01:36:56;150089.91;;;10.43;100.00
12358;BME280;6243;51.244;6.774;2023-02-24T01:39:22;150101.34;;;10.47;100.00
12358;BME280;6243;51.244;6.774;2023-02-24T01:41:49;150105.22;;;10.49;100.00
12358;BME280;6243;51.244;6.774;2023-02-24T01:47:18;150004.75;;;10.09;100.00
12358;BME280;6243;51.244;6.774;2023-02-24T01:49:46;150039.09;;;10.23;100.00
12358;BME280;6243;51.244;6.774;2023-02-24T01:52:15;150046.75;;;10.26;100.00
12358;BME280;6243;51.244;6.774;2023-02-24T01:54:45;150032.75;;;10.20;100.00
12358;BME280;6243;51.244;6.774;2023-02-24T01:57:17;150056.91;;;10.30;100.00
12358;BME280;6243;51.244;6.774;2023-02-24T01:59:45;150070.91;;;10.35;100.00
12358;BME280;6243;51.244;6.774;2023-02-24T02:02:12;150042.94;;;10.24;100.00
12358;BME280;6243;51.244;6.774;2023-02-24T02:04:40;150059.47;;;10.31;100.00
12358;BME280;6243;51.244;6.774;2023-02-24T02:07:07;150055.63;;;10.29;100.00
12358;BME280;6243;51.244;6.774;2023-02-24T02:09:34;150039.09;;;10.23;100.00
12358;BME280;6243;51.244;6.774;2023-02-24T02:12:00;150037.81;;;10.22;100.00
12358;BME280;6243;51.244;6.774;2023-02-24T02:14:26;150049.25;;;10.27;100.00
12358;BME280;6243;51.244;6.774;2023-02-24T02:17:01;150031.50;;;10.20;100.00
12358;BME280;6243;51.244;6.774;2023-02-24T02:20:14;149997.16;;;10.06;100.00
12358;BME280;6243;51.244;6.774;2023-02-24T02:23:25;150017.50;;;10.14;100.00
12358;BME280;6243;51.244;6.774;2023-02-24T02:26:07;150014.97;;;10.13;100.00
12358;BME280;6243;51.244;6.774;2023-02-24T02:28:50;150030.22;;;10.19;100.00
12358;BME280;6243;51.244;6.774;2023-02-24T02:31:42;150013.72;;;10.13;100.00
12358;BME280;6243;51.244;6.774;2023-02-24T02:34:31;149974.28;;;9.97;100.00
12358;BME280;6243;51.244;6.774;2023-02-24T02:37:05;149979.38;;;9.99;100.00
12358;BME280;6243;51.244;6.774;2023-02-24T02:39:38;149952.66;;;9.88;100.00
12358;BME280;6243;51.244;6.774;2023-02-24T02:42:17;149962.81;;;9.92;100.00
12358;BME280;6243;51.244;6.774;2023-02-24T02:44:50;149919.66;;;9.75;100.00
12358;BME280;6243;51.244;6.774;2023-02-24T02:47:22;149926.00;;;9.78;100.00
12358;BME280;6243;51.244;6.774;2023-02-24T02:49:54;149960.31;;;9.91;100.00
12358;BME280;6243;51.244;6.774;2023-02-24T02:52:27;149918.38;;;9.75;100.00
12358;BME280;6243;51.244;6.774;2023-02-24T02:54:55;149937.44;;;9.82;100.00
12358;BME280;6243;51.244;6.774;2023-02-24T02:57:26;149914.59;;;9.73;100.00
12358;BME280;6243;51.244;6.774;2023-02-24T02:59:55;149847.28;;;9.47;100.00
12358;BME280;6243;51.244;6.774;2023-02-24T03:02:26;149884.09;;;9.61;100.00
12358;BME280;6243;51.244;6.774;2023-02-24T03:04:57;149829.50;;;9.40;100.00
12358;BME280;6243;51.244;6.774;2023-02-24T03:07:27;149877.72;;;9.59;100.00
12358;BME280;6243;51.244;6.774;2023-02-24T03:09:56;149759.69;;;9.12;100.00
12358;BME280;6243;51.244;6.774;2023-02-24T03:12:25;149824.44;;;9.38;100.00
12358;BME280;6243;51.244;6.774;2023-02-24T03:14:57;149738.09;;;9.03;100.00
12358;BME280;6243;51.244;6.774;2023-02-24T03:17:26;149716.50;;;8.95;100.00
12358;BME280;6243;51.244;6.774;2023-02-24T03:19:58;149791.38;;;9.24;100.00
12358;BME280;6243;51.244;6.774;2023-02-24T03:22:30;149748.25;;;9.07;100.00
12358;BME280;6243;51.244;6.774;2023-02-24T03:24:57;149755.84;;;9.10;100.00
12358;BME280;6243;51.244;6.774;2023-02-24T03:27:27;149787.59;;;9.23;100.00
12358;BME280;6243;51.244;6.774;2023-02-24T03:29:55;149786.31;;;9.22;100.00
12358;BME280;6243;51.244;6.774;2023-02-24T03:32:25;149804.09;;;9.29;100.00
12358;BME280;6243;51.244;6.774;2023-02-24T03:34:57;149805.38;;;9.30;100.00
12358;BME280;6243;51.244;6.774;2023-02-24T03:37:25;149814.25;;;9.34;100.00
12358;BME280;6243;51.244;6.774;2023-02-24T03:39:52;149814.25;;;9.34;100.00
12358;BME280;6243;51.244;6.774;2023-02-24T03:42:19;149763.47;;;9.13;100.00
12358;BME280;6243;51.244;6.774;2023-02-24T03:44:45;149788.88;;;9.23;100.00
12358;BME280;6243;51.244;6.774;2023-02-24T03:47:10;149799.03;;;9.27;100.00
12358;BME280;6243;51.244;6.774;2023-02-24T03:49:37;149783.81;;;9.21;100.00
12358;BME280;6243;51.244;6.774;2023-02-24T03:52:11;149730.47;;;9.00;100.00
12358;BME280;6243;51.244;6.774;2023-02-24T03:54:55;149757.13;;;9.11;100.00
12358;BME280;6243;51.244;6.774;2023-02-24T03:57:29;149782.53;;;9.21;100.00
12358;BME280;6243;51.244;6.774;2023-02-24T04:00:03;149755.84;;;9.10;100.00
12358;BME280;6243;51.244;6.774;2023-02-24T04:02:31;149791.38;;;9.24;100.00
12358;BME280;6243;51.244;6.774;2023-02-24T04:05:02;149790.16;;;9.24;100.00
12358;BME280;6243;51.244;6.774;2023-02-24T04:07:39;149712.69;;;8.93;100.00
12358;BME280;6243;51.244;6.774;2023-02-24T04:10:11;149730.47;;;9.00;100.00
12358;BME280;6243;51.244;6.774;2023-02-24T04:12:41;149757.13;;;9.11;100.00
12358;BME280;6243;51.244;6.774;2023-02-24T04:15:13;149766.03;;;9.14;100.00
12358;BME280;6243;51.244;6.774;2023-02-24T04:17:43;149715.25;;;8.94;100.00
12358;BME280;6243;51.244;6.774;2023-02-24T04:20:12;149735.56;;;9.02;100.00
12358;BME280;6243;51.244;6.774;2023-02-24T04:22:42;149672.09;;;8.77;100.00
12358;BME280;6243;51.244;6.774;2023-02-24T04:25:10;149731.75;;;9.01;100.00
12358;BME280;6243;51.244;6.774;2023-02-24T04:27:36;149758.41;;;9.11;100.00
12358;BME280;6243;51.244;6.774;2023-02-24T04:30:02;149670.81;;;8.77;100.00
12358;BME280;6243;51.244;6.774;2023-02-24T04:32:29;149727.91;;;8.99;100.00
12358;BME280;6243;51.244;6.774;2023-02-24T04:35:01;149722.84;;;8.97;100.00
12358;BME280;6243;51.244;6.774;2023-02-24T04:37:26;149730.47;;;9.00;100.00
12358;BME280;6243;51.244;6.774;2023-02-24T04:39:53;149688.56;;;8.84;100.00
12358;BME280;6243;51.244;6.774;2023-02-24T04:42:18;149715.25;;;8.94;100.00
12358;BME280;6243;51.244;6.774;2023-02-24T04:44:44;149650.53;;;8.69;100.00
12358;BME280;6243;51.244;6.774;2023-02-24T04:47:10;149518.53;;;8.16;100.00
12358;BME280;6243;51.244;6.774;2023-02-24T04:49:35;149647.97;;;8.68;100.00
12358;BME280;6243;51.244;6.774;2023-02-24T04:52:01;149612.44;;;8.53;100.00
12358;BME280;6243;51.244;6.774;2023-02-24T04:54:26;149621.34;;;8.57;100.00
12358;BME280;6243;51.244;6.774;2023-02-24T04:56:54;149682.22;;;8.81;100.00
12358;BME280;6243;51.244;6.774;2023-02-24T04:59:21;149691.13;;;8.85;100.00
12358;BME280;6243;51.244;6.774;2023-02-24T05:01:46;149641.63;;;8.65;100.00
12358;BME280;6243;51.244;6.774;2023-02-24T05:04:13;149684.78;;;8.82;100.00
12358;BME280;6243;51.244;6.774;2023-02-24T05:06:39;149705.06;;;8.90;100.00
12358;BME280;6243;51.244;6.774;2023-02-24T05:09:05;149677.16;;;8.79;100.00
12358;BME280;6243;51.244;6.774;2023-02-24T05:11:30;149693.66;;;8.86;100.00
12358;BME280;6243;51.244;6.774;2023-02-24T05:13:57;149689.84;;;8.84;100.00
12358;BME280;6243;51.244;6.774;2023-02-24T05:16:23;149715.25;;;8.94;100.00
12358;BME280;6243;51.244;6.774;2023-02-24T05:18:48;149607.38;;;8.51;100.00
12358;BME280;6243;51.244;6.774;2023-02-24T05:21:15;149646.69;;;8.67;100.00
12358;BME280;6243;51.244;6.774;2023-02-24T05:23:42;149647.97;;;8.68;100.00
12358;BME280;6243;51.244;6.774;2023-02-24T05:26:09;149696.22;;;8.87;100.00
12358;BME280;6243;51.244;6.774;2023-02-24T05:28:35;149713.97;;;8.94;100.00
12358;BME280;6243;51.244;6.774;2023-02-24T05:31:08;149739.34;;;9.04;100.00
12358;BME280;6243;51.244;6.774;2023-02-24T05:33:34;149717.78;;;8.95;100.00
12358;BME280;6243;51.244;6.774;2023-02-24T05:36:02;149735.56;;;9.02;100.00
12358;BME280;6243;51.244;6.774;2023-02-24T05:38:28;149738.09;;;9.03;100.00
12358;BME280;6243;51.244;6.774;2023-02-24T05:40:54;149745.69;;;9.06;100.00
12358;BME280;6243;51.244;6.774;2023-02-24T05:43:19;149758.41;;;9.11;100.00
12358;BME280;6243;51.244;6.774;2023-02-24T05:45:45;149738.09;;;9.03;100.00
12358;BME280;6243;51.244;6.774;2023-02-24T05:48:13;149758.41;;;9.11;100.00
12358;BME280;6243;51.244;6.774;2023-02-24T05:50:38;149731.75;;;9.01;100.00
12358;BME280;6243;51.244;6.774;2023-02-24T05:53:04;149736.84;;;9.03;100.00
12358;BME280;6243;51.244;6.774;2023-02-24T05:55:29;149677.16;;;8.79;100.00
12358;BME280;6243;51.244;6.774;2023-02-24T05:57:55;149711.44;;;8.93;100.00
12358;BME280;6243;51.244;6.774;2023-02-24T06:00:21;149715.25;;;8.94;100.00
12358;BME280;6243;51.244;6.774;2023-02-24T06:02:47;149739.34;;;9.04;100.00
12358;BME280;6243;51.244;6.774;2023-02-24T06:05:15;149736.84;;;9.03;100.00
12358;BME280;6243;51.244;6.774;2023-02-24T06:07:40;149735.56;;;9.02;100.00
12358;BME280;6243;51.244;6.774;2023-02-24T06:10:07;149744.41;;;9.06;100.00
12358;BME280;6243;51.244;6.774;2023-02-24T06:12:33;149762.19;;;9.13;100.00
12358;BME280;6243;51.244;6.774;2023-02-24T06:15:00;149762.19;;;9.13;100.00
12358;BME280;6243;51.244;6.774;2023-02-24T06:17:26;149773.63;;;9.17;100.00
12358;BME280;6243;51.244;6.774;2023-02-24T06:19:52;149738.09;;;9.03;100.00
12358;BME280;6243;51.244;6.774;2023-02-24T06:22:21;149764.75;;;9.14;100.00
12358;BME280;6243;51.244;6.774;2023-02-24T06:24:47;149665.75;;;8.75;100.00
12358;BME280;6243;51.244;6.774;2023-02-24T06:27:15;149727.91;;;8.99;100.00
12358;BME280;6243;51.244;6.774;2023-02-24T06:29:40;149760.97;;;9.12;100.00
12358;BME280;6243;51.244;6.774;2023-02-24T06:32:06;149786.31;;;9.22;100.00
12358;BME280;6243;51.244;6.774;2023-02-24T06:34:31;149745.69;;;9.06;100.00
12358;BME280;6243;51.244;6.774;2023-02-24T06:36:57;149762.19;;;9.13;100.00
12358;BME280;6243;51.244;6.774;2023-02-24T06:39:24;149744.41;;;9.06;100.00
12358;BME280;6243;51.244;6.774;2023-02-24T06:41:49;149763.47;;;9.13;100.00
12358;BME280;6243;51.244;6.774;2023-02-24T06:44:14;149766.03;;;9.14;100.00
12358;BME280;6243;51.244;6.774;2023-02-24T06:46:40;149793.94;;;9.25;100.00
12358;BME280;6243;51.244;6.774;2023-02-24T06:49:05;149787.59;;;9.23;100.00
12358;BME280;6243;51.244;6.774;2023-02-24T06:51:31;149781.25;;;9.20;100.00
12358;BME280;6243;51.244;6.774;2023-02-24T06:53:56;149793.94;;;9.25;100.00
12358;BME280;6243;51.244;6.774;2023-02-24T06:56:24;149792.66;;;9.25;100.00
12358;BME280;6243;51.244;6.774;2023-02-24T06:58:52;149738.09;;;9.03;100.00
12358;BME280;6243;51.244;6.774;2023-02-24T07:01:22;149731.75;;;9.01;100.00
12358;BME280;6243;51.244;6.774;2023-02-24T07:03:48;149762.19;;;9.13;100.00
12358;BME280;6243;51.244;6.774;2023-02-24T07:06:13;149766.03;;;9.14;100.00
12358;BME280;6243;51.244;6.774;2023-02-24T07:08:39;149687.31;;;8.83;100.00
12358;BME280;6243;51.244;6.774;2023-02-24T07:11:04;149630.19;;;8.61;100.00
12358;BME280;6243;51.244;6.774;2023-02-24T07:13:32;149522.31;;;8.18;100.00
12358;BME280;6243;51.244;6.774;2023-02-24T07:15:58;149526.13;;;8.19;100.00
12358;BME280;6243;51.244;6.774;2023-02-24T07:18:24;149641.63;;;8.65;100.00
12358;BME280;6243;51.244;6.774;2023-02-24T07:20:50;149667.03;;;8.75;100.00
12358;BME280;6243;51.244;6.774;2023-02-24T07:23:15;149669.53;;;8.76;100.00
12358;BME280;6243;51.244;6.774;2023-02-24T07:25:42;149677.16;;;8.79;100.00
12358;BME280;6243;51.244;6.774;2023-02-24T07:28:08;149717.78;;;8.95;100.00
12358;BME280;6243;51.244;6.774;2023-02-24T07:30:36;149730.47;;;9.00;100.00
12358;BME280;6243;51.244;6.774;2023-02-24T07:33:03;149759.69;;;9.12;100.00
12358;BME280;6243;51.244;6.774;2023-02-24T07:35:29;149762.19;;;9.13;100.00
12358;BME280;6243;51.244;6.774;2023-02-24T07:37:54;149804.09;;;9.29;100.00
12358;BME280;6243;51.244;6.774;2023-02-24T07:40:20;149804.09;;;9.29;100.00
12358;BME280;6243;51.244;6.774;2023-02-24T07:42:46;149777.44;;;9.19;100.00
12358;BME280;6243;51.244;6.774;2023-02-24T07:45:11;149804.09;;;9.29;100.00
12358;BME280;6243;51.244;6.774;2023-02-24T07:47:38;149806.66;;;9.31;100.00
12358;BME280;6243;51.244;6.774;2023-02-24T07:50:05;149786.31;;;9.22;100.00
12358;BME280;6243;51.244;6.774;2023-02-24T07:52:30;149782.53;;;9.21;100.00
12358;BME280;6243;51.244;6.774;2023-02-24T07:54:56;149636.53;;;8.63;100.00
12358;BME280;6243;51.244;6.774;2023-02-24T07:57:21;149760.97;;;9.12;100.00
12358;BME280;6243;51.244;6.774;2023-02-24T07:59:47;149809.16;;;9.32;100.00
12358;BME280;6243;51.244;6.774;2023-02-24T08:02:12;149755.84;;;9.10;100.00
12358;BME280;6243;51.244;6.774;2023-02-24T08:04:39;149760.97;;;9.12;100.00
12358;BME280;6243;51.244;6.774;2023-02-24T08:07:05;149819.31;;;9.36;100.00
12358;BME280;6243;51.244;6.774;2023-02-24T08:09:32;149847.28;;;9.47;100.00
12358;BME280;6243;51.244;6.774;2023-02-24T08:11:58;149847.28;;;9.47;100.00
12358;BME280;6243;51.244;6.774;2023-02-24T08:14:25;149768.53;;;9.15;100.00
12358;BME280;6243;51.244;6.774;2023-02-24T08:16:53;149857.44;;;9.51;100.00
12358;BME280;6243;51.244;6.774;2023-02-24T08:19:19;149849.81;;;9.48;100.00
12358;BME280;6243;51.244;6.774;2023-02-24T08:21:48;149847.28;;;9.47;100.00
12358;BME280;6243;51.244;6.774;2023-02-24T08:24:16;149885.38;;;9.62;100.00
12358;BME280;6243;51.244;6.774;2023-02-24T08:26:43;149781.25;;;9.20;100.00
12358;BME280;6243;51.244;6.774;2023-02-24T08:29:09;149875.22;;;9.58;100.00
12358;BME280;6243;51.244;6.774;2023-02-24T08:31:35;149842.16;;;9.45;100.00
12358;BME280;6243;51.244;6.774;2023-02-24T08:34:01;149912.03;;;9.72;100.00
12358;BME280;6243;51.244;6.774;2023-02-24T08:36:26;149929.81;;;9.79;100.00
12358;BME280;6243;51.244;6.774;2023-02-24T08:38:53;149932.38;;;9.80;100.00
12358;BME280;6243;51.244;6.774;2023-02-24T08:41:19;149928.53;;;9.79;100.00
12358;BME280;6243;51.244;6.774;2023-02-24T08:43:46;149959.03;;;9.91;100.00
12358;BME280;6243;51.244;6.774;2023-02-24T08:46:16;149969.16;;;9.95;100.00
12358;BME280;6243;51.244;6.774;2023-02-24T08:48:43;149964.09;;;9.93;100.00
12358;BME280;6243;51.244;6.774;2023-02-24T08:51:11;149936.16;;;9.82;100.00
12358;BME280;6243;51.244;6.774;2023-02-24T08:53:38;149909.50;;;9.71;100.00
12358;BME280;6243;51.244;6.774;2023-02-24T08:56:07;149948.88;;;9.87;100.00
12358;BME280;6243;51.244;6.774;2023-02-24T08:58:33;149948.88;;;9.87;95.99
12358;BME280;6243;51.244;6.774;2023-02-24T09:00:58;149965.38;;;9.93;98.67
12358;BME280;6243;51.244;6.774;2023-02-24T09:03:26;149981.88;;;10.00;97.71
12358;BME280;6243;51.244;6.774;2023-02-24T09:05:56;149966.66;;;9.94;97.33
12358;BME280;6243;51.244;6.774;2023-02-24T09:08:21;149974.28;;;9.97;98.27
12358;BME280;6243;51.244;6.774;2023-02-24T09:10:47;149971.72;;;9.96;99.83
12358;BME280;6243;51.244;6.774;2023-02-24T09:13:13;150000.97;;;10.08;98.63
12358;BME280;6243;51.244;6.774;2023-02-24T09:15:39;149993.31;;;10.05;97.54
12358;BME280;6243;51.244;6.774;2023-02-24T09:18:05;149993.31;;;10.05;97.41
12358;BME280;6243;51.244;6.774;2023-02-24T09:20:30;149994.59;;;10.05;94.86
12358;BME280;6243;51.244;6.774;2023-02-24T09:22:57;150009.88;;;10.11;91.08
12358;BME280;6243;51.244;6.774;2023-02-24T09:25:24;149997.16;;;10.06;90.89
12358;BME280;6243;51.244;6.774;2023-02-24T09:27:51;149995.88;;;10.06;91.91
12358;BME280;6243;51.244;6.774;2023-02-24T09:30:19;150009.88;;;10.11;91.51
12358;BME280;6243;51.244;6.774;2023-02-24T09:32:45;149962.81;;;9.92;91.03
12358;BME280;6243;51.244;6.774;2023-02-24T09:35:11;149994.59;;;10.05;89.10
12358;BME280;6243;51.244;6.774;2023-02-24T09:37:36;150013.72;;;10.13;89.58
12358;BME280;6243;51.244;6.774;2023-02-24T09:40:02;150018.78;;;10.15;91.28
12358;BME280;6243;51.244;6.774;2023-02-24T09:42:30;150025.16;;;10.17;89.32
12358;BME280;6243;51.244;6.774;2023-02-24T09:45:00;150008.59;;;10.11;91.32
12358;BME280;6243;51.244;6.774;2023-02-24T09:47:31;150045.47;;;10.25;90.67
12358;BME280;6243;51.244;6.774;2023-02-24T09:50:02;150060.75;;;10.31;88.10
12358;BME280;6243;51.244;6.774;2023-02-24T09:52:30;150017.50;;;10.14;87.23
12358;BME280;6243;51.244;6.774;2023-02-24T09:54:56;150027.66;;;10.18;87.50
12358;BME280;6243;51.244;6.774;2023-02-24T09:57:22;150056.91;;;10.30;86.69
12358;BME280;6243;51.244;6.774;2023-02-24T09:59:53;150054.38;;;10.29;83.26
12358;BME280;6243;51.244;6.774;2023-02-24T10:02:39;150050.53;;;10.27;82.58
12358;BME280;6243;51.244;6.774;2023-02-24T10:05:12;150044.19;;;10.25;83.26
12358;BME280;6243;51.244;6.774;2023-02-24T10:07:43;150042.94;;;10.24;84.35
12358;BME280;6243;51.244;6.774;2023-02-24T10:10:13;150046.75;;;10.26;85.59
12358;BME280;6243;51.244;6.774;2023-02-24T10:12:41;149988.25;;;10.02;84.68
12358;BME280;6243;51.244;6.774;2023-02-24T10:15:12;150026.38;;;10.18;84.87
12358;BME280;6243;51.244;6.774;2023-02-24T10:17:40;150036.59;;;10.22;83.75
12358;BME280;6243;51.244;6.774;2023-02-24T10:20:13;150028.94;;;10.19;84.04
12358;BME280;6243;51.244;6.774;2023-02-24T10:22:43;150039.09;;;10.23;82.84
12358;BME280;6243;51.244;6.774;2023-02-24T10:25:21;150006.03;;;10.10;83.85
12358;BME280;6243;51.244;6.774;2023-02-24T10:27:54;150004.75;;;10.09;83.12
12358;BME280;6243;51.244;6.774;2023-02-24T10:30:29;150022.59;;;10.16;83.86
12358;BME280;6243;51.244;6.774;2023-02-24T10:33:02;150022.59;;;10.16;85.66
12358;BME280;6243;51.244;6.774;2023-02-24T10:35:30;150026.38;;;10.18;84.85
12358;BME280;6243;51.244;6.774;2023-02-24T10:37:55;150017.50;;;10.14;84.54
12358;BME280;6243;51.244;6.774;2023-02-24T10:40:20;149951.38;;;9.88;87.26
12358;BME280;6243;51.244;6.774;2023-02-24T10:42:46;150004.75;;;10.09;86.63
12358;BME280;6243;51.244;6.774;2023-02-24T10:45:14;150006.03;;;10.10;85.75
12358;BME280;6243;51.244;6.774;2023-02-24T10:47:40;149974.28;;;9.97;87.43
12358;BME280;6243;51.244;6.774;2023-02-24T10:50:20;150012.44;;;10.12;88.12
12358;BME280;6243;51.244;6.774;2023-02-24T10:52:46;150036.59;;;10.22;88.52
12358;BME280;6243;51.244;6.774;2023-02-24T10:55:20;150030.22;;;10.19;89.75
12358;BME280;6243;51.244;6.774;2023-02-24T10:57:48;150021.31;;;10.16;91.13
12358;BME280;6243;51.244;6.774;2023-02-24T11:00:16;150025.16;;;10.17;93.04
12358;BME280;6243;51.244;6.774;2023-02-24T11:02:47;149962.81;;;9.92;94.28
12358;BME280;6243;51.244;6.774;2023-02-24T11:05:14;149953.94;;;9.89;96.21
12358;BME280;6243;51.244;6.774;2023-02-24T11:07:40;150007.31;;;10.10;95.71
12358;BME280;6243;51.244;6.774;2023-02-24T11:10:11;149927.28;;;9.78;93.44
12358;BME280;6243;51.244;6.774;2023-02-24T11:12:42;149793.94;;;9.25;98.61
12358;BME280;6243;51.244;6.774;2023-02-24T11:15:16;149927.28;;;9.78;100.00
12358;BME280;6243;51.244;6.774;2023-02-24T11:17:47;149926.00;;;9.78;100.00
12358;BME280;6243;51.244;6.774;2023-02-24T11:20:26;149922.22;;;9.76;100.00
12358;BME280;6243;51.244;6.774;2023-02-24T11:22:52;149976.81;;;9.98;100.00
12358;BME280;6243;51.244;6.774;2023-02-24T11:25:21;149979.38;;;9.99;100.00
12358;BME280;6243;51.244;6.774;2023-02-24T11:27:47;149966.66;;;9.94;100.00
12358;BME280;6243;51.244;6.774;2023-02-24T11:30:24;149962.81;;;9.92;100.00
12358;BME280;6243;51.244;6.774;2023-02-24T11:33:06;149983.16;;;10.00;100.00
12358;BME280;6243;51.244;6.774;2023-02-24T11:35:40;149835.88;;;9.42;100.00
12358;BME280;6243;51.244;6.774;2023-02-24T11:38:15;149882.81;;;9.61;100.00
12358;BME280;6243;51.244;6.774;2023-02-24T11:40:47;149819.31;;;9.36;100.00
12358;BME280;6243;51.244;6.774;2023-02-24T11:43:21;149913.31;;;9.73;100.00
12358;BME280;6243;51.244;6.774;2023-02-24T11:45:52;149934.88;;;9.81;100.00
12358;BME280;6243;51.244;6.774;2023-02-24T11:48:20;149938.72;;;9.83;100.00
12358;BME280;6243;51.244;6.774;2023-02-24T11:50:51;149953.94;;;9.89;100.00
12358;BME280;6243;51.244;6.774;2023-02-24T11:53:25;149920.94;;;9.76;100.00
12358;BME280;6243;51.244;6.774;2023-02-24T11:55:56;149875.22;;;9.58;100.00
12358;BME280;6243;51.244;6.774;2023-02-24T11:58:30;149910.78;;;9.72;100.00
12358;BME280;6243;51.244;6.774;2023-02-24T12:01:05;149899.34;;;9.67;100.00
12358;BME280;6243;51.244;6.774;2023-02-24T12:03:36;149899.34;;;9.67;100.00
12358;BME280;6243;51.244;6.774;2023-02-24T12:06:15;149826.94;;;9.39;100.00
12358;BME280;6243;51.244;6.774;2023-02-24T12:08:44;149868.88;;;9.55;100.00
12358;BME280;6243;51.244;6.774;2023-02-24T12:11:18;149862.50;;;9.53;100.00
12358;BME280;6243;51.244;6.774;2023-02-24T12:13:49;149876.50;;;9.58;100.00
12358;BME280;6243;51.244;6.774;2023-02-24T12:16:19;149896.78;;;9.66;100.00
12358;BME280;6243;51.244;6.774;2023-02-24T12:18:51;149924.72;;;9.77;100.00
12358;BME280;6243;51.244;6.774;2023-02-24T12:21:23;149903.16;;;9.69;100.00
12358;BME280;6243;51.244;6.774;2023-02-24T12:23:51;149933.66;;;9.81;100.00
12358;BME280;6243;51.244;6.774;2023-02-24T12:26:19;149941.22;;;9.84;100.00
12358;BME280;6243;51.244;6.774;2023-02-24T12:31:43;149941.22;;;9.84;100.00
12358;BME280;6243;51.244;6.774;2023-02-24T12:34:15;149937.44;;;9.82;100.00
12358;BME280;6243;51.244;6.774;2023-02-24T12:37:03;149928.53;;;9.79;100.00
12358;BME280;6243;51.244;6.774;2023-02-24T12:39:41;149929.81;;;9.79;100.00
12358;BME280;6243;51.244;6.774;2023-02-24T12:42:18;149922.22;;;9.76;100.00
12358;BME280;6243;51.244;6.774;2023-02-24T12:44:51;149938.72;;;9.83;100.00
12358;BME280;6243;51.244;6.774;2023-02-24T12:47:24;149932.38;;;9.80;100.00
12358;BME280;6243;51.244;6.774;2023-02-24T12:50:08;149922.22;;;9.76;100.00
12358;BME280;6243;51.244;6.774;2023-02-24T12:52:48;149950.16;;;9.87;100.00
12358;BME280;6243;51.244;6.774;2023-02-24T12:55:21;149913.31;;;9.73;100.00
12358;BME280;6243;51.244;6.774;2023-02-24T12:57:54;149879.00;;;9.59;100.00
12358;BME280;6243;51.244;6.774;2023-02-24T13:00:29;149896.78;;;9.66;100.00
12358;BME280;6243;51.244;6.774;2023-02-24T13:03:03;149914.59;;;9.73;100.00
12358;BME280;6243;51.244;6.774;2023-02-24T13:05:37;149918.38;;;9.75;100.00
12358;BME280;6243;51.244;6.774;2023-02-24T13:08:17;149879.00;;;9.59;100.00
12358;BME280;6243;51.244;6.774;2023-02-24T13:10:48;149828.22;;;9.39;100.00
12358;BME280;6243;51.244;6.774;2023-02-24T13:13:20;149877.72;;;9.59;100.00